Terminal Aerodrome Forecast
Issued by NWS Paducah, KY

Home | Current Version | Previous Version | Text Only | Print | Product List | Glossary Off
Versions: 1 2 3 4 5 6 7 8 9 10 11 12 13 14 15 16 17 18 19

673
FTUS43 KPAH 171120
TAFEVV
TAF
KEVV 171120Z 1712/1812 21008KT P6SM FEW100 BKN250
     FM171300 21010KT P6SM VCSH SCT040 BKN080
      TEMPO 1713/1716 -SHRA BKN030
     FM171800 22008G18KT P6SM VCSH BKN050
      TEMPO 1721/1723 -TSRA BKN030CB
     FM180100 27004KT P6SM SKC=

USA.gov is the U.S. government's official web portal to all federal, state and local government web resources and services.